sensor_id;sensor_type;location;lat;lon;timestamp;temperature;humidity
7044;DHT22;57890;52.36301240;9.76001620;2022-12-18T00:02:22;-0.40;89.80
7044;DHT22;57890;52.36301240;9.76001620;2022-12-18T00:04:49;-0.40;89.90
7044;DHT22;57890;52.36301240;9.76001620;2022-12-18T00:07:16;-0.40;89.90
7044;DHT22;57890;52.36301240;9.76001620;2022-12-18T00:09:43;-0.40;89.70
7044;DHT22;57890;52.36301240;9.76001620;2022-12-18T00:12:20;-0.40;89.90
7044;DHT22;57890;52.36301240;9.76001620;2022-12-18T00:15:06;-0.40;89.70
7044;DHT22;57890;52.36301240;9.76001620;2022-12-18T00:17:35;-0.40;89.70
7044;DHT22;57890;52.36301240;9.76001620;2022-12-18T00:20:27;-0.40;89.80
7044;DHT22;57890;52.36301240;9.76001620;2022-12-18T00:23:02;-0.40;89.90
7044;DHT22;57890;52.36301240;9.76001620;2022-12-18T00:25:29;-0.40;89.90
7044;DHT22;57890;52.36301240;9.76001620;2022-12-18T00:27:58;-0.40;90.00
7044;DHT22;57890;52.36301240;9.76001620;2022-12-18T00:30:27;-0.40;90.00
7044;DHT22;57890;52.36301240;9.76001620;2022-12-18T00:32:54;-0.40;89.90
7044;DHT22;57890;52.36301240;9.76001620;2022-12-18T00:35:23;-0.40;89.70
7044;DHT22;57890;52.36301240;9.76001620;2022-12-18T00:37:52;-0.40;90.00
7044;DHT22;57890;52.36301240;9.76001620;2022-12-18T00:40:18;-0.40;89.70
7044;DHT22;57890;52.36301240;9.76001620;2022-12-18T00:42:45;-0.40;89.80
7044;DHT22;57890;52.36301240;9.76001620;2022-12-18T00:45:21;-0.40;89.70
7044;DHT22;57890;52.36301240;9.76001620;2022-12-18T00:47:50;-0.40;89.80
7044;DHT22;57890;52.36301240;9.76001620;2022-12-18T00:50:17;-0.40;89.60
7044;DHT22;57890;52.36301240;9.76001620;2022-12-18T00:52:44;-0.40;90.20
7044;DHT22;57890;52.36301240;9.76001620;2022-12-18T00:55:12;-0.40;89.70
7044;DHT22;57890;52.36301240;9.76001620;2022-12-18T00:57:39;-0.40;89.60
7044;DHT22;57890;52.36301240;9.76001620;2022-12-18T01:00:08;-0.50;89.50
7044;DHT22;57890;52.36301240;9.76001620;2022-12-18T01:02:35;-0.50;89.70
7044;DHT22;57890;52.36301240;9.76001620;2022-12-18T01:05:04;-0.50;89.60
7044;DHT22;57890;52.36301240;9.76001620;2022-12-18T01:07:31;-0.50;89.70
7044;DHT22;57890;52.36301240;9.76001620;2022-12-18T01:09:58;-0.50;89.80
7044;DHT22;57890;52.36301240;9.76001620;2022-12-18T01:12:25;-0.50;89.70
7044;DHT22;57890;52.36301240;9.76001620;2022-12-18T01:14:52;-0.50;89.90
7044;DHT22;57890;52.36301240;9.76001620;2022-12-18T01:17:20;-0.40;89.90
7044;DHT22;57890;52.36301240;9.76001620;2022-12-18T01:19:47;-0.50;89.60
7044;DHT22;57890;52.36301240;9.76001620;2022-12-18T01:22:16;-0.50;89.50
7044;DHT22;57890;52.36301240;9.76001620;2022-12-18T01:24:44;-0.50;89.60
7044;DHT22;57890;52.36301240;9.76001620;2022-12-18T01:27:11;-0.50;89.70
7044;DHT22;57890;52.36301240;9.76001620;2022-12-18T01:29:39;-0.50;89.70
7044;DHT22;57890;52.36301240;9.76001620;2022-12-18T01:32:07;-0.50;89.70
7044;DHT22;57890;52.36301240;9.76001620;2022-12-18T01:34:35;-0.50;89.70
7044;DHT22;57890;52.36301240;9.76001620;2022-12-18T01:37:04;-0.50;89.50
7044;DHT22;57890;52.36301240;9.76001620;2022-12-18T01:39:32;-0.50;89.50
7044;DHT22;57890;52.36301240;9.76001620;2022-12-18T01:42:01;-0.60;89.30
7044;DHT22;57890;52.36301240;9.76001620;2022-12-18T01:44:56;-0.60;89.60
7044;DHT22;57890;52.36301240;9.76001620;2022-12-18T01:47:26;-0.60;89.50
7044;DHT22;57890;52.36301240;9.76001620;2022-12-18T01:49:54;-0.60;89.60
7044;DHT22;57890;52.36301240;9.76001620;2022-12-18T01:52:24;-0.70;89.40
7044;DHT22;57890;52.36301240;9.76001620;2022-12-18T01:54:54;-0.70;89.40
7044;DHT22;57890;52.36301240;9.76001620;2022-12-18T01:57:23;-0.70;90.10
7044;DHT22;57890;52.36301240;9.76001620;2022-12-18T01:59:53;-0.70;89.60
7044;DHT22;57890;52.36301240;9.76001620;2022-12-18T02:02:21;-0.70;89.70
7044;DHT22;57890;52.36301240;9.76001620;2022-12-18T02:04:48;-0.70;89.40
7044;DHT22;57890;52.36301240;9.76001620;2022-12-18T02:07:21;-0.70;89.50
7044;DHT22;57890;52.36301240;9.76001620;2022-12-18T02:09:57;-0.70;89.70
7044;DHT22;57890;52.36301240;9.76001620;2022-12-18T02:12:29;-0.70;89.60
7044;DHT22;57890;52.36301240;9.76001620;2022-12-18T02:15:02;-0.70;89.50
7044;DHT22;57890;52.36301240;9.76001620;2022-12-18T02:17:35;-0.70;89.60
7044;DHT22;57890;52.36301240;9.76001620;2022-12-18T02:20:12;-0.70;89.50
7044;DHT22;57890;52.36301240;9.76001620;2022-12-18T02:22:49;-0.80;89.40
7044;DHT22;57890;52.36301240;9.76001620;2022-12-18T02:25:30;-0.80;89.50
7044;DHT22;57890;52.36301240;9.76001620;2022-12-18T02:28:02;-0.80;89.40
7044;DHT22;57890;52.36301240;9.76001620;2022-12-18T02:30:31;-0.70;89.40
7044;DHT22;57890;52.36301240;9.76001620;2022-12-18T02:33:02;-0.80;89.20
7044;DHT22;57890;52.36301240;9.76001620;2022-12-18T02:35:31;-0.80;89.20
7044;DHT22;57890;52.36301240;9.76001620;2022-12-18T02:38:01;-0.80;89.20
7044;DHT22;57890;52.36301240;9.76001620;2022-12-18T02:40:32;-0.80;89.30
7044;DHT22;57890;52.36301240;9.76001620;2022-12-18T02:43:07;-0.90;89.20
7044;DHT22;57890;52.36301240;9.76001620;2022-12-18T02:45:34;-0.90;89.30
7044;DHT22;57890;52.36301240;9.76001620;2022-12-18T02:48:03;-0.90;89.20
7044;DHT22;57890;52.36301240;9.76001620;2022-12-18T02:50:36;-0.90;89.40
7044;DHT22;57890;52.36301240;9.76001620;2022-12-18T02:53:10;-1.00;89.10
7044;DHT22;57890;52.36301240;9.76001620;2022-12-18T02:55:50;-1.00;89.30
7044;DHT22;57890;52.36301240;9.76001620;2022-12-18T02:58:27;-1.00;89.20
7044;DHT22;57890;52.36301240;9.76001620;2022-12-18T03:01:10;-1.00;89.30
7044;DHT22;57890;52.36301240;9.76001620;2022-12-18T03:03:43;-1.10;89.40
7044;DHT22;57890;52.36301240;9.76001620;2022-12-18T03:06:20;-1.00;90.10
7044;DHT22;57890;52.36301240;9.76001620;2022-12-18T03:08:53;-1.00;89.40
7044;DHT22;57890;52.36301240;9.76001620;2022-12-18T03:11:25;-1.00;89.50
7044;DHT22;57890;52.36301240;9.76001620;2022-12-18T03:14:10;-1.10;89.40
7044;DHT22;57890;52.36301240;9.76001620;2022-12-18T03:16:40;-1.10;89.40
7044;DHT22;57890;52.36301240;9.76001620;2022-12-18T03:19:11;-1.10;89.40
7044;DHT22;57890;52.36301240;9.76001620;2022-12-18T03:21:45;-1.10;89.40
7044;DHT22;57890;52.36301240;9.76001620;2022-12-18T03:24:15;-1.10;89.40
7044;DHT22;57890;52.36301240;9.76001620;2022-12-18T03:26:46;-1.10;89.40
7044;DHT22;57890;52.36301240;9.76001620;2022-12-18T03:29:25;-1.10;89.40
7044;DHT22;57890;52.36301240;9.76001620;2022-12-18T03:32:02;-1.10;89.60
7044;DHT22;57890;52.36301240;9.76001620;2022-12-18T03:34:35;-1.00;89.70
7044;DHT22;57890;52.36301240;9.76001620;2022-12-18T03:37:07;-1.00;89.30
7044;DHT22;57890;52.36301240;9.76001620;2022-12-18T03:39:37;-1.00;89.60
7044;DHT22;57890;52.36301240;9.76001620;2022-12-18T03:42:08;-1.00;89.70
7044;DHT22;57890;52.36301240;9.76001620;2022-12-18T03:44:46;-1.00;89.60
7044;DHT22;57890;52.36301240;9.76001620;2022-12-18T03:47:24;-1.00;89.50
7044;DHT22;57890;52.36301240;9.76001620;2022-12-18T03:49:57;-1.00;89.70
7044;DHT22;57890;52.36301240;9.76001620;2022-12-18T03:52:35;-1.00;89.60
7044;DHT22;57890;52.36301240;9.76001620;2022-12-18T03:55:05;-0.90;89.80
7044;DHT22;57890;52.36301240;9.76001620;2022-12-18T03:57:34;-1.00;89.50
7044;DHT22;57890;52.36301240;9.76001620;2022-12-18T04:00:08;-1.00;89.50
7044;DHT22;57890;52.36301240;9.76001620;2022-12-18T04:02:54;-1.00;89.30
7044;DHT22;57890;52.36301240;9.76001620;2022-12-18T04:05:30;-1.00;89.40
7044;DHT22;57890;52.36301240;9.76001620;2022-12-18T04:07:59;-1.00;89.40
7044;DHT22;57890;52.36301240;9.76001620;2022-12-18T04:10:27;-1.00;89.40
7044;DHT22;57890;52.36301240;9.76001620;2022-12-18T04:12:55;-1.00;89.40
7044;DHT22;57890;52.36301240;9.76001620;2022-12-18T04:15:24;-1.00;89.40
7044;DHT22;57890;52.36301240;9.76001620;2022-12-18T04:17:52;-0.90;89.60
7044;DHT22;57890;52.36301240;9.76001620;2022-12-18T04:20:24;-0.90;89.40
7044;DHT22;57890;52.36301240;9.76001620;2022-12-18T04:22:52;-1.00;89.10
7044;DHT22;57890;52.36301240;9.76001620;2022-12-18T04:25:20;-1.00;89.30
7044;DHT22;57890;52.36301240;9.76001620;2022-12-18T04:28:01;-1.00;89.30
7044;DHT22;57890;52.36301240;9.76001620;2022-12-18T04:30:30;-0.90;89.60
7044;DHT22;57890;52.36301240;9.76001620;2022-12-18T04:32:58;-0.90;89.40
7044;DHT22;57890;52.36301240;9.76001620;2022-12-18T04:35:26;-1.00;89.00
7044;DHT22;57890;52.36301240;9.76001620;2022-12-18T04:37:53;-1.00;89.20
7044;DHT22;57890;52.36301240;9.76001620;2022-12-18T04:40:21;-1.00;89.30
7044;DHT22;57890;52.36301240;9.76001620;2022-12-18T04:42:48;-1.00;89.10
7044;DHT22;57890;52.36301240;9.76001620;2022-12-18T04:45:15;-1.00;89.20
7044;DHT22;57890;52.36301240;9.76001620;2022-12-18T04:47:43;-1.00;89.00
7044;DHT22;57890;52.36301240;9.76001620;2022-12-18T04:50:10;-1.10;89.00
7044;DHT22;57890;52.36301240;9.76001620;2022-12-18T04:52:37;-1.10;88.90
7044;DHT22;57890;52.36301240;9.76001620;2022-12-18T04:55:05;-1.20;88.80
7044;DHT22;57890;52.36301240;9.76001620;2022-12-18T04:57:32;-1.20;88.90
7044;DHT22;57890;52.36301240;9.76001620;2022-12-18T04:59:59;-1.20;88.80
7044;DHT22;57890;52.36301240;9.76001620;2022-12-18T05:02:26;-1.20;89.10
7044;DHT22;57890;52.36301240;9.76001620;2022-12-18T05:04:54;-1.20;88.90
7044;DHT22;57890;52.36301240;9.76001620;2022-12-18T05:07:21;-1.20;89.30
7044;DHT22;57890;52.36301240;9.76001620;2022-12-18T05:09:48;-1.20;89.10
7044;DHT22;57890;52.36301240;9.76001620;2022-12-18T05:12:15;-1.20;88.90
7044;DHT22;57890;52.36301240;9.76001620;2022-12-18T05:14:42;-1.20;89.00
7044;DHT22;57890;52.36301240;9.76001620;2022-12-18T05:17:09;-1.20;88.90
7044;DHT22;57890;52.36301240;9.76001620;2022-12-18T05:19:36;-1.20;89.00
7044;DHT22;57890;52.36301240;9.76001620;2022-12-18T05:22:04;-1.30;88.70
7044;DHT22;57890;52.36301240;9.76001620;2022-12-18T05:24:31;-1.30;88.90
7044;DHT22;57890;52.36301240;9.76001620;2022-12-18T05:26:58;-1.30;89.00
7044;DHT22;57890;52.36301240;9.76001620;2022-12-18T05:29:25;-1.30;89.00
7044;DHT22;57890;52.36301240;9.76001620;2022-12-18T05:31:52;-1.30;89.20
7044;DHT22;57890;52.36301240;9.76001620;2022-12-18T05:34:19;-1.30;88.90
7044;DHT22;57890;52.36301240;9.76001620;2022-12-18T05:36:46;-1.30;88.80
7044;DHT22;57890;52.36301240;9.76001620;2022-12-18T05:39:15;-1.30;88.70
7044;DHT22;57890;52.36301240;9.76001620;2022-12-18T05:41:42;-1.30;89.00
7044;DHT22;57890;52.36301240;9.76001620;2022-12-18T05:44:09;-1.30;89.00
7044;DHT22;57890;52.36301240;9.76001620;2022-12-18T05:46:36;-1.30;89.10
7044;DHT22;57890;52.36301240;9.76001620;2022-12-18T05:49:03;-1.30;89.00
7044;DHT22;57890;52.36301240;9.76001620;2022-12-18T05:51:30;-1.40;88.80
7044;DHT22;57890;52.36301240;9.76001620;2022-12-18T05:53:57;-1.40;89.00
7044;DHT22;57890;52.36301240;9.76001620;2022-12-18T05:56:25;-1.40;88.60
7044;DHT22;57890;52.36301240;9.76001620;2022-12-18T05:58:53;-1.40;88.60
7044;DHT22;57890;52.36301240;9.76001620;2022-12-18T06:01:22;-1.40;88.80
7044;DHT22;57890;52.36301240;9.76001620;2022-12-18T06:03:49;-1.40;88.60
7044;DHT22;57890;52.36301240;9.76001620;2022-12-18T06:06:18;-1.40;88.70
7044;DHT22;57890;52.36301240;9.76001620;2022-12-18T06:08:46;-1.40;89.00
7044;DHT22;57890;52.36301240;9.76001620;2022-12-18T06:11:15;-1.40;89.10
7044;DHT22;57890;52.36301240;9.76001620;2022-12-18T06:13:44;-1.40;88.90
7044;DHT22;57890;52.36301240;9.76001620;2022-12-18T06:16:11;-1.40;89.00
7044;DHT22;57890;52.36301240;9.76001620;2022-12-18T06:18:38;-1.40;89.10
7044;DHT22;57890;52.36301240;9.76001620;2022-12-18T06:21:05;-1.40;88.80
7044;DHT22;57890;52.36301240;9.76001620;2022-12-18T06:23:32;-1.40;88.70
7044;DHT22;57890;52.36301240;9.76001620;2022-12-18T06:26:03;-1.40;89.00
7044;DHT22;57890;52.36301240;9.76001620;2022-12-18T06:28:30;-1.40;89.00
7044;DHT22;57890;52.36301240;9.76001620;2022-12-18T06:30:59;-1.40;88.90
7044;DHT22;57890;52.36301240;9.76001620;2022-12-18T06:33:26;-1.40;88.80
7044;DHT22;57890;52.36301240;9.76001620;2022-12-18T06:35:58;-1.40;89.00
7044;DHT22;57890;52.36301240;9.76001620;2022-12-18T06:38:26;-1.40;89.00
7044;DHT22;57890;52.36301240;9.76001620;2022-12-18T06:40:53;-1.40;89.00
7044;DHT22;57890;52.36301240;9.76001620;2022-12-18T06:43:20;-1.40;88.90
7044;DHT22;57890;52.36301240;9.76001620;2022-12-18T06:45:47;-1.40;88.90
7044;DHT22;57890;52.36301240;9.76001620;2022-12-18T06:48:19;-1.40;88.70
7044;DHT22;57890;52.36301240;9.76001620;2022-12-18T06:50:47;-1.40;88.90
7044;DHT22;57890;52.36301240;9.76001620;2022-12-18T06:53:14;-1.40;88.90
7044;DHT22;57890;52.36301240;9.76001620;2022-12-18T06:55:41;-1.30;89.20
7044;DHT22;57890;52.36301240;9.76001620;2022-12-18T06:58:08;-1.30;88.90
7044;DHT22;57890;52.36301240;9.76001620;2022-12-18T07:00:35;-1.30;89.20
7044;DHT22;57890;52.36301240;9.76001620;2022-12-18T07:03:02;-1.30;89.10
7044;DHT22;57890;52.36301240;9.76001620;2022-12-18T07:05:30;-1.20;89.40
7044;DHT22;57890;52.36301240;9.76001620;2022-12-18T07:07:57;-1.20;89.30
7044;DHT22;57890;52.36301240;9.76001620;2022-12-18T07:10:24;-1.20;89.10
7044;DHT22;57890;52.36301240;9.76001620;2022-12-18T07:12:51;-1.20;89.20
7044;DHT22;57890;52.36301240;9.76001620;2022-12-18T07:15:18;-1.20;88.80
7044;DHT22;57890;52.36301240;9.76001620;2022-12-18T07:17:45;-1.20;89.20
7044;DHT22;57890;52.36301240;9.76001620;2022-12-18T07:20:12;-1.20;89.00
7044;DHT22;57890;52.36301240;9.76001620;2022-12-18T07:22:41;-1.20;89.10
7044;DHT22;57890;52.36301240;9.76001620;2022-12-18T07:25:08;-1.20;89.00
7044;DHT22;57890;52.36301240;9.76001620;2022-12-18T07:27:35;-1.20;89.10
7044;DHT22;57890;52.36301240;9.76001620;2022-12-18T07:30:02;-1.20;89.00
7044;DHT22;57890;52.36301240;9.76001620;2022-12-18T07:32:30;-1.20;89.10
7044;DHT22;57890;52.36301240;9.76001620;2022-12-18T07:34:57;-1.20;88.90
7044;DHT22;57890;52.36301240;9.76001620;2022-12-18T07:37:24;-1.20;88.90
7044;DHT22;57890;52.36301240;9.76001620;2022-12-18T07:39:52;-1.20;89.00
7044;DHT22;57890;52.36301240;9.76001620;2022-12-18T07:42:19;-1.20;89.10
7044;DHT22;57890;52.36301240;9.76001620;2022-12-18T07:44:58;-1.20;89.10
7044;DHT22;57890;52.36301240;9.76001620;2022-12-18T07:47:26;-1.10;89.40
7044;DHT22;57890;52.36301240;9.76001620;2022-12-18T07:49:53;-1.20;88.70
7044;DHT22;57890;52.36301240;9.76001620;2022-12-18T07:52:21;-1.20;88.70
7044;DHT22;57890;52.36301240;9.76001620;2022-12-18T07:54:48;-1.20;89.00
7044;DHT22;57890;52.36301240;9.76001620;2022-12-18T07:57:17;-1.20;89.00
7044;DHT22;57890;52.36301240;9.76001620;2022-12-18T07:59:43;-1.20;88.80
7044;DHT22;57890;52.36301240;9.76001620;2022-12-18T08:02:11;-1.10;88.90
7044;DHT22;57890;52.36301240;9.76001620;2022-12-18T08:04:37;-1.10;89.10
7044;DHT22;57890;52.36301240;9.76001620;2022-12-18T08:07:04;-1.10;89.10
7044;DHT22;57890;52.36301240;9.76001620;2022-12-18T08:09:31;-1.10;89.00
7044;DHT22;57890;52.36301240;9.76001620;2022-12-18T08:11:58;-1.10;89.60
7044;DHT22;57890;52.36301240;9.76001620;2022-12-18T08:14:27;-1.00;89.10
7044;DHT22;57890;52.36301240;9.76001620;2022-12-18T08:16:54;-1.10;88.80
7044;DHT22;57890;52.36301240;9.76001620;2022-12-18T08:19:20;-1.00;88.90
7044;DHT22;57890;52.36301240;9.76001620;2022-12-18T08:21:47;-1.00;89.10
7044;DHT22;57890;52.36301240;9.76001620;2022-12-18T08:24:14;-1.00;89.20
7044;DHT22;57890;52.36301240;9.76001620;2022-12-18T08:26:41;-1.00;89.30
7044;DHT22;57890;52.36301240;9.76001620;2022-12-18T08:29:09;-0.90;89.30
7044;DHT22;57890;52.36301240;9.76001620;2022-12-18T08:31:38;-0.90;89.20
7044;DHT22;57890;52.36301240;9.76001620;2022-12-18T08:34:05;-0.90;89.20
7044;DHT22;57890;52.36301240;9.76001620;2022-12-18T08:36:34;-0.80;89.50
7044;DHT22;57890;52.36301240;9.76001620;2022-12-18T08:39:01;-0.80;89.30
7044;DHT22;57890;52.36301240;9.76001620;2022-12-18T08:41:29;-0.80;89.40
7044;DHT22;57890;52.36301240;9.76001620;2022-12-18T08:43:58;-0.70;90.20
7044;DHT22;57890;52.36301240;9.76001620;2022-12-18T08:46:44;-0.60;89.90
7044;DHT22;57890;52.36301240;9.76001620;2022-12-18T08:49:12;-0.60;89.80
7044;DHT22;57890;52.36301240;9.76001620;2022-12-18T08:51:39;-0.60;89.50
7044;DHT22;57890;52.36301240;9.76001620;2022-12-18T08:54:07;-0.50;89.90
7044;DHT22;57890;52.36301240;9.76001620;2022-12-18T08:56:34;-0.40;90.00
7044;DHT22;57890;52.36301240;9.76001620;2022-12-18T08:59:01;-0.40;90.00
7044;DHT22;57890;52.36301240;9.76001620;2022-12-18T09:01:30;-0.40;90.00
7044;DHT22;57890;52.36301240;9.76001620;2022-12-18T09:03:59;-0.40;89.80
7044;DHT22;57890;52.36301240;9.76001620;2022-12-18T09:06:26;-0.40;90.00
7044;DHT22;57890;52.36301240;9.76001620;2022-12-18T09:08:54;-0.30;90.00
7044;DHT22;57890;52.36301240;9.76001620;2022-12-18T09:11:27;-0.30;89.90
7044;DHT22;57890;52.36301240;9.76001620;2022-12-18T09:14:03;-0.20;90.00
7044;DHT22;57890;52.36301240;9.76001620;2022-12-18T09:16:32;-0.20;90.00
7044;DHT22;57890;52.36301240;9.76001620;2022-12-18T09:19:05;-0.20;90.00
7044;DHT22;57890;52.36301240;9.76001620;2022-12-18T09:21:40;-0.10;90.00
7044;DHT22;57890;52.36301240;9.76001620;2022-12-18T09:24:12;-0.20;89.80
7044;DHT22;57890;52.36301240;9.76001620;2022-12-18T09:26:40;-0.10;90.10
7044;DHT22;57890;52.36301240;9.76001620;2022-12-18T09:29:07;-0.10;90.00
7044;DHT22;57890;52.36301240;9.76001620;2022-12-18T09:31:38;0.00;90.20
7044;DHT22;57890;52.36301240;9.76001620;2022-12-18T09:34:09;0.00;90.10
7044;DHT22;57890;52.36301240;9.76001620;2022-12-18T09:36:37;0.10;90.10
7044;DHT22;57890;52.36301240;9.76001620;2022-12-18T09:39:05;0.10;90.10
7044;DHT22;57890;52.36301240;9.76001620;2022-12-18T09:41:42;0.20;90.20
7044;DHT22;57890;52.36301240;9.76001620;2022-12-18T09:44:20;0.20;90.10
7044;DHT22;57890;52.36301240;9.76001620;2022-12-18T09:46:55;0.30;90.20
7044;DHT22;57890;52.36301240;9.76001620;2022-12-18T09:49:29;0.40;90.30
7044;DHT22;57890;52.36301240;9.76001620;2022-12-18T09:52:00;0.40;90.20
7044;DHT22;57890;52.36301240;9.76001620;2022-12-18T09:54:33;0.50;90.50
7044;DHT22;57890;52.36301240;9.76001620;2022-12-18T09:57:02;0.60;90.40
7044;DHT22;57890;52.36301240;9.76001620;2022-12-18T09:59:34;0.60;90.30
7044;DHT22;57890;52.36301240;9.76001620;2022-12-18T10:02:14;0.70;90.40
7044;DHT22;57890;52.36301240;9.76001620;2022-12-18T10:04:44;0.70;90.40
7044;DHT22;57890;52.36301240;9.76001620;2022-12-18T10:07:20;0.90;90.90
7044;DHT22;57890;52.36301240;9.76001620;2022-12-18T10:09:53;1.00;90.90
7044;DHT22;57890;52.36301240;9.76001620;2022-12-18T10:12:32;1.10;91.20
7044;DHT22;57890;52.36301240;9.76001620;2022-12-18T10:15:06;1.10;90.80
7044;DHT22;57890;52.36301240;9.76001620;2022-12-18T10:17:54;1.20;90.80
7044;DHT22;57890;52.36301240;9.76001620;2022-12-18T10:20:32;1.20;90.70
7044;DHT22;57890;52.36301240;9.76001620;2022-12-18T10:23:13;1.30;90.60
7044;DHT22;57890;52.36301240;9.76001620;2022-12-18T10:25:52;1.30;90.60
7044;DHT22;57890;52.36301240;9.76001620;2022-12-18T10:28:22;1.40;90.60
7044;DHT22;57890;52.36301240;9.76001620;2022-12-18T10:30:53;1.40;90.60
7044;DHT22;57890;52.36301240;9.76001620;2022-12-18T10:33:28;1.40;90.50
7044;DHT22;57890;52.36301240;9.76001620;2022-12-18T10:35:57;1.60;90.90
7044;DHT22;57890;52.36301240;9.76001620;2022-12-18T10:38:26;1.70;90.80
7044;DHT22;57890;52.36301240;9.76001620;2022-12-18T10:40:55;1.80;90.90
7044;DHT22;57890;52.36301240;9.76001620;2022-12-18T10:43:25;1.80;90.80
7044;DHT22;57890;52.36301240;9.76001620;2022-12-18T10:46:03;1.90;90.80
7044;DHT22;57890;52.36301240;9.76001620;2022-12-18T10:48:33;1.90;90.80
7044;DHT22;57890;52.36301240;9.76001620;2022-12-18T10:51:03;2.00;90.80
7044;DHT22;57890;52.36301240;9.76001620;2022-12-18T10:53:31;2.00;90.80
7044;DHT22;57890;52.36301240;9.76001620;2022-12-18T10:56:03;2.10;90.80
7044;DHT22;57890;52.36301240;9.76001620;2022-12-18T10:58:33;2.20;91.20
7044;DHT22;57890;52.36301240;9.76001620;2022-12-18T11:01:09;2.20;90.90
7044;DHT22;57890;52.36301240;9.76001620;2022-12-18T11:03:38;2.30;90.80
7044;DHT22;57890;52.36301240;9.76001620;2022-12-18T11:06:09;2.40;90.90
7044;DHT22;57890;52.36301240;9.76001620;2022-12-18T11:08:36;2.50;90.90
7044;DHT22;57890;52.36301240;9.76001620;2022-12-18T11:11:09;2.50;90.90
7044;DHT22;57890;52.36301240;9.76001620;2022-12-18T11:13:47;2.60;90.90
7044;DHT22;57890;52.36301240;9.76001620;2022-12-18T11:16:18;2.70;91.00
7044;DHT22;57890;52.36301240;9.76001620;2022-12-18T11:18:45;2.70;90.90
7044;DHT22;57890;52.36301240;9.76001620;2022-12-18T11:21:15;2.80;90.90
7044;DHT22;57890;52.36301240;9.76001620;2022-12-18T11:23:49;2.80;90.90
7044;DHT22;57890;52.36301240;9.76001620;2022-12-18T11:26:17;2.90;90.90
7044;DHT22;57890;52.36301240;9.76001620;2022-12-18T11:28:49;2.90;90.90
7044;DHT22;57890;52.36301240;9.76001620;2022-12-18T11:31:24;3.00;90.90
7044;DHT22;57890;52.36301240;9.76001620;2022-12-18T11:34:00;3.00;90.80
7044;DHT22;57890;52.36301240;9.76001620;2022-12-18T11:36:38;3.10;90.90
7044;DHT22;57890;52.36301240;9.76001620;2022-12-18T11:39:14;3.10;90.90
7044;DHT22;57890;52.36301240;9.76001620;2022-12-18T11:41:48;3.20;90.90
7044;DHT22;57890;52.36301240;9.76001620;2022-12-18T11:44:41;3.30;91.00
7044;DHT22;57890;52.36301240;9.76001620;2022-12-18T11:47:15;3.40;91.00
7044;DHT22;57890;52.36301240;9.76001620;2022-12-18T11:49:47;3.40;91.00
7044;DHT22;57890;52.36301240;9.76001620;2022-12-18T11:52:21;3.50;91.00
7044;DHT22;57890;52.36301240;9.76001620;2022-12-18T11:54:51;3.60;91.00
7044;DHT22;57890;52.36301240;9.76001620;2022-12-18T11:57:26;3.60;90.80
7044;DHT22;57890;52.36301240;9.76001620;2022-12-18T12:00:02;3.70;90.90
7044;DHT22;57890;52.36301240;9.76001620;2022-12-18T12:02:48;3.80;90.90
7044;DHT22;57890;52.36301240;9.76001620;2022-12-18T12:05:38;3.90;90.90
7044;DHT22;57890;52.36301240;9.76001620;2022-12-18T12:08:15;3.90;90.80
7044;DHT22;57890;52.36301240;9.76001620;2022-12-18T12:10:53;4.00;90.90
7044;DHT22;57890;52.36301240;9.76001620;2022-12-18T12:13:35;4.00;90.80
7044;DHT22;57890;52.36301240;9.76001620;2022-12-18T12:16:13;4.00;90.70
7044;DHT22;57890;52.36301240;9.76001620;2022-12-18T12:18:54;4.00;90.70
7044;DHT22;57890;52.36301240;9.76001620;2022-12-18T12:21:28;4.10;90.70
7044;DHT22;57890;52.36301240;9.76001620;2022-12-18T12:24:10;4.00;90.70
7044;DHT22;57890;52.36301240;9.76001620;2022-12-18T12:26:45;4.00;90.70
7044;DHT22;57890;52.36301240;9.76001620;2022-12-18T12:29:31;4.00;90.60
7044;DHT22;57890;52.36301240;9.76001620;2022-12-18T12:32:11;4.00;90.60
7044;DHT22;57890;52.36301240;9.76001620;2022-12-18T12:34:50;4.00;90.90
7044;DHT22;57890;52.36301240;9.76001620;2022-12-18T12:37:28;4.00;90.50
7044;DHT22;57890;52.36301240;9.76001620;2022-12-18T12:40:00;4.00;90.40
7044;DHT22;57890;52.36301240;9.76001620;2022-12-18T12:42:32;4.00;90.40
7044;DHT22;57890;52.36301240;9.76001620;2022-12-18T12:45:26;3.90;90.30
7044;DHT22;57890;52.36301240;9.76001620;2022-12-18T12:47:55;3.90;90.20
7044;DHT22;57890;52.36301240;9.76001620;2022-12-18T12:50:24;3.90;90.20
7044;DHT22;57890;52.36301240;9.76001620;2022-12-18T12:52:54;3.90;90.20
7044;DHT22;57890;52.36301240;9.76001620;2022-12-18T12:55:25;3.90;90.20
7044;DHT22;57890;52.36301240;9.76001620;2022-12-18T12:57:59;3.80;90.20
7044;DHT22;57890;52.36301240;9.76001620;2022-12-18T13:00:38;3.80;90.20
7044;DHT22;57890;52.36301240;9.76001620;2022-12-18T13:03:13;3.80;90.10
7044;DHT22;57890;52.36301240;9.76001620;2022-12-18T13:05:48;3.80;90.10
7044;DHT22;57890;52.36301240;9.76001620;2022-12-18T13:08:23;3.70;90.10
7044;DHT22;57890;52.36301240;9.76001620;2022-12-18T13:10:52;3.70;90.00
7044;DHT22;57890;52.36301240;9.76001620;2022-12-18T13:13:51;3.70;90.10
7044;DHT22;57890;52.36301240;9.76001620;2022-12-18T13:16:20;3.60;89.70
7044;DHT22;57890;52.36301240;9.76001620;2022-12-18T13:18:49;3.60;90.00
7044;DHT22;57890;52.36301240;9.76001620;2022-12-18T13:21:23;3.50;89.80
7044;DHT22;57890;52.36301240;9.76001620;2022-12-18T13:23:51;3.40;89.60
7044;DHT22;57890;52.36301240;9.76001620;2022-12-18T13:26:33;3.40;89.70
7044;DHT22;57890;52.36301240;9.76001620;2022-12-18T13:29:00;3.30;89.50
7044;DHT22;57890;52.36301240;9.76001620;2022-12-18T13:34:33;3.30;89.70
7044;DHT22;57890;52.36301240;9.76001620;2022-12-18T13:43:39;3.20;89.90
7044;DHT22;57890;52.36301240;9.76001620;2022-12-18T13:46:19;3.20;89.80
7044;DHT22;57890;52.36301240;9.76001620;2022-12-18T13:48:59;3.10;89.90
7044;DHT22;57890;52.36301240;9.76001620;2022-12-18T13:51:27;3.10;90.00
7044;DHT22;57890;52.36301240;9.76001620;2022-12-18T13:53:58;3.10;90.00
7044;DHT22;57890;52.36301240;9.76001620;2022-12-18T13:56:27;3.10;89.90
7044;DHT22;57890;52.36301240;9.76001620;2022-12-18T13:59:18;3.10;89.90
7044;DHT22;57890;52.36301240;9.76001620;2022-12-18T14:01:47;3.10;89.70
7044;DHT22;57890;52.36301240;9.76001620;2022-12-18T14:04:23;3.00;89.60
7044;DHT22;57890;52.36301240;9.76001620;2022-12-18T14:06:53;3.00;89.60
7044;DHT22;57890;52.36301240;9.76001620;2022-12-18T14:09:27;2.90;89.30